createdAt,value
2022-10-18T00:00:29.821Z,7.85
2022-10-18T00:02:34.754Z,6.45
2022-10-18T00:04:39.716Z,7.88
2022-10-18T00:06:44.490Z,8.18
2022-10-18T00:08:51.777Z,10.55
2022-10-18T00:10:57.003Z,7.78
2022-10-18T00:15:07.915Z,6.10
2022-10-18T00:17:13.357Z,11.68
2022-10-18T00:19:18.615Z,7.53
2022-10-18T00:23:33.715Z,6.10
2022-10-18T00:25:41.045Z,6.13
2022-10-18T00:27:45.861Z,7.68
2022-10-18T00:29:54.723Z,6.75
2022-10-18T00:31:59.490Z,9.55
2022-10-18T00:34:06.759Z,9.30
2022-10-18T00:36:12.492Z,6.78
2022-10-18T00:38:17.272Z,6.20
2022-10-18T00:40:22.152Z,7.90
2022-10-18T00:42:35.385Z,7.82
2022-10-18T00:45:16.001Z,6.97
2022-10-18T00:47:22.335Z,7.13
2022-10-18T00:49:33.075Z,6.93
2022-10-18T00:51:42.730Z,5.97
2022-10-18T00:53:47.968Z,6.13
2022-10-18T00:55:53.390Z,6.18
2022-10-18T00:58:01.093Z,8.48
2022-10-18T01:00:09.839Z,8.00
2022-10-18T01:02:18.215Z,5.30
2022-10-18T01:04:26.215Z,8.48
2022-10-18T01:06:32.067Z,7.03
2022-10-18T01:08:59.080Z,6.40
2022-10-18T01:11:15.930Z,5.63
2022-10-18T01:13:34.694Z,6.63
2022-10-18T01:15:49.786Z,6.68
2022-10-18T01:18:06.169Z,8.27
2022-10-18T01:20:37.900Z,7.78
2022-10-18T01:22:47.403Z,7.30
2022-10-18T01:25:10.037Z,8.02
2022-10-18T01:27:43.045Z,5.88
2022-10-18T01:30:00.579Z,4.47
2022-10-18T01:32:14.071Z,6.35
2022-10-18T01:34:21.292Z,6.07
2022-10-18T01:36:31.487Z,9.27
2022-10-18T01:38:39.761Z,8.15
2022-10-18T01:40:46.309Z,4.38
2022-10-18T01:42:53.062Z,6.55
2022-10-18T01:44:58.936Z,6.32
2022-10-18T01:47:08.258Z,5.43
2022-10-18T01:49:13.235Z,9.77
2022-10-18T01:51:18.173Z,6.63
2022-10-18T01:53:34.002Z,6.45
2022-10-18T01:55:43.953Z,6.20
2022-10-18T01:57:58.679Z,5.25
2022-10-18T02:00:08.900Z,8.10
2022-10-18T02:02:29.986Z,7.85
2022-10-18T02:04:43.136Z,9.20
2022-10-18T02:06:49.196Z,6.82
2022-10-18T02:08:58.012Z,5.82
2022-10-18T02:11:05.896Z,6.43
2022-10-18T02:13:12.057Z,8.15
2022-10-18T02:15:22.716Z,8.68
2022-10-18T02:17:32.972Z,7.50
2022-10-18T02:19:43.184Z,6.50
2022-10-18T02:21:51.393Z,8.60
2022-10-18T02:23:57.543Z,9.48
2022-10-18T02:26:02.400Z,8.45
2022-10-18T02:28:08.195Z,7.72
2022-10-18T02:30:15.508Z,12.82
2022-10-18T02:32:24.347Z,11.40
2022-10-18T02:34:37.475Z,7.35
2022-10-18T02:36:47.145Z,12.00
2022-10-18T02:38:57.380Z,8.07
2022-10-18T02:41:02.494Z,7.20
2022-10-18T02:47:19.167Z,7.87
2022-10-18T02:49:24.074Z,8.38
2022-10-18T02:53:36.352Z,9.30
2022-10-18T02:57:45.776Z,8.73
2022-10-18T02:59:50.614Z,7.95
2022-10-18T03:01:55.451Z,6.68
2022-10-18T03:04:00.491Z,6.38
2022-10-18T03:06:05.282Z,5.88
2022-10-18T03:08:12.689Z,8.23
2022-10-18T03:10:17.582Z,7.60
2022-10-18T03:12:22.472Z,10.07
2022-10-18T03:14:27.316Z,6.18
2022-10-18T03:16:32.104Z,12.77
2022-10-18T03:18:36.958Z,6.70
2022-10-18T03:20:41.772Z,8.48
2022-10-18T03:22:46.493Z,9.40
2022-10-18T03:24:54.401Z,6.50
2022-10-18T03:26:59.433Z,7.97
2022-10-18T03:29:04.274Z,10.35
2022-10-18T03:31:09.228Z,10.05
2022-10-18T03:33:13.989Z,7.95
2022-10-18T03:35:18.905Z,7.57
2022-10-18T03:37:23.699Z,6.15
2022-10-18T03:39:29.713Z,7.10
2022-10-18T03:41:37.118Z,6.18
2022-10-18T03:43:41.901Z,7.82
2022-10-18T03:45:46.810Z,9.63
2022-10-18T03:47:51.501Z,5.53
2022-10-18T03:49:57.287Z,8.70
2022-10-18T03:52:02.325Z,6.43
2022-10-18T03:54:07.212Z,5.88
2022-10-18T03:56:11.936Z,8.48
2022-10-18T03:58:19.363Z,6.90
2022-10-18T04:00:25.547Z,8.75
2022-10-18T04:02:30.693Z,6.22
2022-10-18T04:06:40.064Z,8.43
2022-10-18T04:08:44.799Z,6.68
2022-10-18T04:10:49.858Z,5.68
2022-10-18T04:12:54.605Z,6.90
2022-10-18T04:15:02.053Z,6.15
2022-10-18T04:17:07.054Z,8.05
2022-10-18T04:19:11.846Z,7.85
2022-10-18T04:21:16.716Z,6.35
2022-10-18T04:23:21.577Z,7.07
2022-10-18T04:25:26.901Z,5.28
2022-10-18T04:27:31.981Z,6.22
2022-10-18T04:29:37.419Z,7.45
2022-10-18T04:33:49.363Z,7.40
2022-10-18T04:35:55.634Z,6.88
2022-10-18T04:38:03.336Z,6.03
2022-10-18T04:40:09.737Z,6.40
2022-10-18T04:42:14.507Z,8.48
2022-10-18T04:44:19.242Z,7.93
2022-10-18T04:46:24.209Z,6.05
2022-10-18T04:48:32.663Z,7.60
2022-10-18T04:50:37.386Z,8.15
2022-10-18T04:52:53.601Z,4.63
2022-10-18T04:54:58.458Z,7.18
2022-10-18T04:57:03.274Z,7.45
2022-10-18T04:59:08.205Z,8.00
2022-10-18T05:01:13.067Z,9.30
2022-10-18T05:03:18.217Z,7.47
2022-10-18T05:07:50.168Z,7.18
2022-10-18T05:09:54.906Z,7.85
2022-10-18T05:11:59.746Z,7.70
2022-10-18T05:14:06.150Z,6.30
2022-10-18T05:16:10.993Z,10.85
2022-10-18T05:18:16.046Z,6.40
2022-10-18T05:20:20.888Z,7.90
2022-10-18T05:22:31.628Z,6.22
2022-10-18T05:24:36.664Z,8.32
2022-10-18T05:26:41.412Z,10.27
2022-10-18T05:28:46.196Z,7.18
2022-10-18T05:30:51.050Z,6.65
2022-10-18T05:32:55.982Z,9.48
2022-10-18T05:35:00.718Z,5.22
2022-10-18T05:37:05.782Z,5.15
2022-10-18T05:39:13.164Z,6.28
2022-10-18T05:41:20.303Z,5.70
2022-10-18T05:43:26.215Z,6.22
2022-10-18T05:45:30.986Z,10.80
2022-10-18T05:49:40.461Z,8.05
2022-10-18T05:51:45.210Z,7.45
2022-10-18T05:53:50.126Z,7.20
2022-10-18T05:55:57.525Z,6.70
2022-10-18T05:58:02.873Z,7.38
2022-10-18T06:00:08.759Z,8.90
2022-10-18T06:02:16.592Z,7.65
2022-10-18T06:04:21.352Z,7.10
2022-10-18T06:06:26.086Z,6.13
2022-10-18T06:08:31.077Z,7.53
2022-10-18T06:10:36.971Z,9.38
2022-10-18T06:12:44.316Z,10.45
2022-10-18T06:14:49.479Z,4.90
2022-10-18T06:16:54.422Z,7.53
2022-10-18T06:19:00.311Z,8.45
2022-10-18T06:21:05.089Z,7.32
2022-10-18T06:23:09.907Z,6.45
2022-10-18T06:25:14.772Z,7.45
2022-10-18T06:27:19.566Z,9.20
2022-10-18T06:29:26.971Z,9.13
2022-10-18T06:31:31.704Z,11.23
2022-10-18T06:33:38.081Z,7.25
2022-10-18T06:35:42.906Z,7.97
2022-10-18T06:37:47.667Z,9.90
2022-10-18T06:39:52.444Z,5.65
2022-10-18T06:41:57.426Z,7.68
2022-10-18T06:44:07.277Z,7.15
2022-10-18T06:46:14.691Z,7.75
2022-10-18T06:50:24.672Z,5.85
2022-10-18T06:52:31.780Z,8.98
2022-10-18T06:54:36.747Z,8.10
2022-10-18T06:56:42.174Z,7.53
2022-10-18T06:58:47.035Z,7.28
2022-10-18T07:00:51.773Z,7.75
2022-10-18T07:02:59.968Z,6.57
2022-10-18T07:05:04.805Z,11.93
2022-10-18T07:07:09.557Z,7.00
2022-10-18T07:09:14.656Z,10.90
2022-10-18T07:13:32.526Z,7.20
2022-10-18T07:15:38.774Z,9.25
2022-10-18T07:17:45.748Z,9.02
2022-10-18T07:19:53.203Z,9.35
2022-10-18T07:21:57.949Z,9.65
2022-10-18T07:24:02.680Z,8.40
2022-10-18T07:26:15.447Z,10.20
2022-10-18T07:28:20.291Z,8.70
2022-10-18T07:30:25.033Z,6.78
2022-10-18T07:32:32.875Z,7.80
2022-10-18T07:34:37.771Z,7.45
2022-10-18T07:36:45.208Z,9.48
2022-10-18T07:38:49.999Z,6.97
2022-10-18T07:40:59.472Z,8.77
2022-10-18T07:43:10.203Z,7.03
2022-10-18T07:45:16.896Z,7.68
2022-10-18T07:47:21.649Z,7.82
2022-10-18T07:49:26.673Z,6.53
2022-10-18T07:51:32.816Z,10.60
2022-10-18T07:53:40.770Z,5.97
2022-10-18T07:55:46.050Z,7.50
2022-10-18T07:59:57.079Z,9.55
2022-10-18T08:02:01.917Z,8.65
2022-10-18T08:04:08.451Z,8.50
2022-10-18T08:06:18.536Z,11.63
2022-10-18T08:08:23.916Z,8.02
2022-10-18T08:10:34.015Z,10.93
2022-10-18T08:12:38.739Z,8.60
2022-10-18T08:14:43.635Z,6.57
2022-10-18T08:16:48.387Z,7.45
2022-10-18T08:18:53.698Z,9.02
2022-10-18T08:20:58.468Z,8.18
2022-10-18T08:23:05.504Z,6.00
2022-10-18T08:25:10.987Z,7.13
2022-10-18T08:27:18.725Z,7.05
2022-10-18T08:29:26.818Z,7.15
2022-10-18T08:31:34.002Z,10.48
2022-10-18T08:33:39.854Z,9.55
2022-10-18T08:35:44.588Z,8.15
2022-10-18T08:37:49.310Z,9.57
2022-10-18T08:39:54.050Z,7.13
2022-10-18T08:42:19.855Z,9.40
2022-10-18T08:44:29.649Z,8.02
2022-10-18T08:46:36.150Z,6.43
2022-10-18T08:48:45.021Z,8.57
2022-10-18T08:50:49.972Z,10.18
2022-10-18T08:55:04.902Z,6.40
2022-10-18T08:57:18.180Z,10.20
2022-10-18T08:59:25.421Z,11.57
2022-10-18T09:01:44.719Z,9.45
2022-10-18T09:04:07.700Z,6.30
2022-10-18T09:06:23.513Z,13.68
2022-10-18T09:08:59.688Z,6.30
2022-10-18T09:11:17.581Z,6.60
2022-10-18T09:13:49.455Z,6.75
2022-10-18T09:15:59.859Z,7.78
2022-10-18T09:18:22.945Z,7.82
2022-10-18T09:20:30.372Z,7.78
2022-10-18T09:22:51.331Z,5.93
2022-10-18T09:25:05.579Z,5.32
2022-10-18T09:27:18.079Z,7.88
2022-10-18T09:29:38.937Z,4.88
2022-10-18T09:31:55.182Z,5.25
2022-10-18T09:34:04.943Z,4.00
2022-10-18T09:36:11.955Z,5.82
2022-10-18T09:38:20.661Z,4.78
2022-10-18T09:40:29.552Z,6.55
2022-10-18T09:42:38.898Z,4.13
2022-10-18T09:44:48.495Z,5.85
2022-10-18T09:46:58.148Z,5.25
2022-10-18T09:49:12.924Z,6.20
2022-10-18T09:51:26.971Z,5.72
2022-10-18T09:53:39.175Z,6.28
2022-10-18T09:55:58.073Z,10.02
2022-10-18T09:58:04.728Z,7.70
2022-10-18T10:00:18.173Z,5.63
2022-10-18T10:02:24.694Z,5.57
2022-10-18T10:04:32.544Z,6.90
2022-10-18T10:06:38.946Z,12.23
2022-10-18T10:08:45.069Z,5.93
2022-10-18T10:10:50.445Z,10.65
2022-10-18T10:13:06.930Z,8.50
2022-10-18T10:15:16.406Z,6.20
2022-10-18T10:17:29.837Z,6.22
2022-10-18T10:19:42.701Z,6.68
2022-10-18T10:21:48.126Z,9.88
2022-10-18T10:23:57.400Z,9.15
2022-10-18T10:26:05.427Z,6.22
2022-10-18T10:28:17.091Z,10.85
2022-10-18T10:30:28.457Z,7.00
2022-10-18T10:32:44.759Z,8.20
2022-10-18T10:34:52.438Z,5.53
2022-10-18T10:36:57.979Z,11.93
2022-10-18T10:39:08.324Z,5.78
2022-10-18T10:41:22.828Z,12.38
2022-10-18T10:43:38.076Z,8.00
2022-10-18T10:46:01.977Z,8.52
2022-10-18T10:48:16.495Z,10.25
2022-10-18T10:50:31.234Z,7.75
2022-10-18T10:52:36.111Z,14.43
2022-10-18T10:54:44.015Z,7.47
2022-10-18T10:56:58.268Z,6.25
2022-10-18T10:59:11.648Z,9.55
2022-10-18T11:01:29.056Z,4.55
2022-10-18T11:03:33.943Z,5.43
2022-10-18T11:07:56.226Z,7.47
2022-10-18T11:10:06.243Z,5.63
2022-10-18T11:12:23.922Z,3.88
2022-10-18T11:14:33.674Z,4.75
2022-10-18T11:16:43.410Z,9.55
2022-10-18T11:18:52.145Z,7.85
2022-10-18T11:21:07.948Z,7.38
2022-10-18T11:23:15.173Z,6.03
2022-10-18T11:25:20.741Z,7.43
2022-10-18T11:27:30.720Z,7.75
2022-10-18T11:29:48.982Z,8.38
2022-10-18T11:32:03.115Z,5.93
2022-10-18T11:34:29.029Z,11.70
2022-10-18T11:36:54.999Z,8.38
2022-10-18T11:39:09.007Z,7.63
2022-10-18T11:41:33.397Z,5.82
2022-10-18T11:44:01.697Z,11.45
2022-10-18T11:46:13.643Z,8.18
2022-10-18T11:48:41.296Z,8.77
2022-10-18T11:50:53.448Z,7.13
2022-10-18T11:53:14.047Z,9.43
2022-10-18T11:55:32.836Z,11.88
2022-10-18T11:57:52.024Z,5.40
2022-10-18T12:00:06.497Z,5.65
2022-10-18T12:02:39.738Z,8.80
2022-10-18T12:05:05.313Z,9.18
2022-10-18T12:07:23.380Z,5.25
2022-10-18T12:09:39.559Z,6.80
2022-10-18T12:11:53.483Z,7.93
2022-10-18T12:14:02.960Z,8.57
2022-10-18T12:16:10.614Z,12.65
2022-10-18T12:18:20.191Z,5.35
2022-10-18T12:20:30.261Z,4.30
2022-10-18T12:22:39.442Z,7.30
2022-10-18T12:24:46.777Z,7.75
2022-10-18T12:26:54.699Z,9.25
2022-10-18T12:29:13.705Z,7.72
2022-10-18T12:31:24.975Z,6.32
2022-10-18T12:33:37.558Z,6.85
2022-10-18T12:35:59.467Z,6.65
2022-10-18T12:38:20.607Z,8.30
2022-10-18T12:40:37.143Z,7.07
2022-10-18T12:42:45.617Z,7.65
2022-10-18T12:44:51.212Z,7.68
2022-10-18T12:46:58.286Z,8.27
2022-10-18T12:49:07.292Z,5.60
2022-10-18T12:51:17.737Z,10.18
2022-10-18T12:53:29.191Z,4.15
2022-10-18T12:55:39.404Z,6.60
2022-10-18T12:58:22.883Z,6.05
2022-10-18T13:00:56.052Z,7.75
2022-10-18T13:03:31.155Z,8.02
2022-10-18T13:05:58.425Z,9.75
2022-10-18T13:08:24.666Z,7.22
2022-10-18T13:10:40.867Z,7.35
2022-10-18T13:13:12.148Z,6.40
2022-10-18T13:15:43.140Z,8.43
2022-10-18T13:17:54.064Z,6.22
2022-10-18T13:20:25.060Z,12.55
2022-10-18T13:22:47.593Z,10.15
2022-10-18T13:25:04.342Z,7.10
2022-10-18T13:27:35.948Z,9.63
2022-10-18T13:30:04.371Z,6.35
2022-10-18T13:32:28.946Z,6.32
2022-10-18T13:34:38.503Z,5.35
2022-10-18T13:36:45.442Z,7.63
2022-10-18T13:39:02.515Z,8.45
2022-10-18T13:41:09.474Z,9.27
2022-10-18T13:43:44.067Z,6.25
2022-10-18T13:45:59.219Z,4.45
2022-10-18T13:48:33.801Z,7.35
2022-10-18T13:50:40.772Z,10.05
2022-10-18T13:53:18.806Z,8.02
2022-10-18T13:55:44.865Z,9.35
2022-10-18T13:57:58.901Z,8.35
2022-10-18T14:00:27.696Z,6.20
2022-10-18T14:03:10.065Z,7.75
2022-10-18T14:05:37.446Z,7.60
2022-10-18T14:07:45.362Z,8.43
2022-10-18T14:09:56.149Z,9.10
2022-10-18T14:12:10.976Z,7.97
2022-10-18T14:14:19.826Z,6.97
2022-10-18T14:16:37.690Z,7.40
2022-10-18T14:18:48.007Z,7.35
2022-10-18T14:21:12.901Z,9.75
2022-10-18T14:23:23.120Z,20.70
2022-10-18T14:25:31.221Z,9.18
2022-10-18T14:27:37.086Z,9.45
2022-10-18T14:29:42.220Z,9.73
2022-10-18T14:31:55.730Z,8.18
2022-10-18T14:34:03.736Z,6.43
2022-10-18T14:36:15.811Z,7.35
2022-10-18T14:38:23.139Z,7.03
2022-10-18T14:40:34.554Z,9.68
2022-10-18T14:42:39.271Z,8.82
2022-10-18T14:44:44.077Z,8.25
2022-10-18T14:46:50.553Z,7.80
2022-10-18T14:48:59.671Z,9.02
2022-10-18T14:51:14.819Z,11.82
2022-10-18T14:53:22.134Z,6.18
2022-10-18T14:55:28.962Z,6.03
2022-10-18T14:57:37.409Z,9.13
2022-10-18T14:59:51.758Z,6.45
2022-10-18T15:02:03.268Z,5.30
2022-10-18T15:04:12.462Z,7.32
2022-10-18T15:06:22.603Z,6.13
2022-10-18T15:08:29.699Z,6.68
2022-10-18T15:10:37.896Z,5.85
2022-10-18T15:13:08.370Z,5.43
2022-10-18T15:15:16.846Z,7.72
2022-10-18T15:17:25.711Z,8.68
2022-10-18T15:19:35.765Z,5.72
2022-10-18T15:22:19.747Z,6.25
2022-10-18T15:24:22.672Z,8.70
2022-10-18T15:26:31.039Z,8.00
2022-10-18T15:28:39.423Z,5.88
2022-10-18T15:30:44.317Z,6.80
2022-10-18T15:32:55.221Z,5.55
2022-10-18T15:35:13.555Z,5.22
2022-10-18T15:37:33.215Z,3.70
2022-10-18T15:39:38.065Z,5.40
2022-10-18T15:41:46.451Z,4.97
2022-10-18T15:43:51.848Z,6.22
2022-10-18T15:46:01.758Z,4.38
2022-10-18T15:48:27.633Z,5.45
2022-10-18T15:50:42.769Z,5.05
2022-10-18T15:52:50.093Z,9.35
2022-10-18T15:54:54.922Z,6.28
2022-10-18T15:57:00.075Z,6.00
2022-10-18T15:59:09.547Z,4.15
2022-10-18T16:01:20.489Z,6.25
2022-10-18T16:03:28.465Z,6.35
2022-10-18T16:05:33.657Z,6.05
2022-10-18T16:07:39.612Z,8.70
2022-10-18T16:09:48.637Z,5.18
2022-10-18T16:11:56.972Z,5.40
2022-10-18T16:14:03.090Z,5.88
2022-10-18T16:16:08.594Z,5.07
2022-10-18T16:18:19.462Z,8.07
2022-10-18T16:20:28.182Z,6.40
2022-10-18T16:22:36.960Z,7.47
2022-10-18T16:24:44.243Z,7.93
2022-10-18T16:26:54.790Z,12.70
2022-10-18T16:29:01.080Z,12.30
2022-10-18T16:31:06.413Z,11.32
2022-10-18T16:33:11.575Z,9.65
2022-10-18T16:35:16.850Z,6.70
2022-10-18T16:37:21.886Z,13.52
2022-10-18T16:39:26.726Z,10.18
2022-10-18T16:41:31.667Z,11.93
2022-10-18T16:43:39.676Z,9.25
2022-10-18T16:45:45.006Z,12.25
2022-10-18T16:47:50.393Z,20.55
2022-10-18T16:49:55.306Z,9.80
2022-10-18T16:52:00.178Z,8.55
2022-10-18T16:54:05.742Z,11.18
2022-10-18T16:56:17.314Z,11.73
2022-10-18T17:00:31.181Z,12.70
2022-10-18T17:02:36.460Z,11.90
2022-10-18T17:04:41.551Z,12.30
2022-10-18T17:08:51.550Z,14.57
2022-10-18T17:10:58.789Z,10.27
2022-10-18T17:13:03.707Z,9.80
2022-10-18T17:15:10.705Z,8.35
2022-10-18T17:17:18.034Z,6.75
2022-10-18T17:19:22.876Z,12.82
2022-10-18T17:21:29.212Z,9.38
2022-10-18T17:23:34.458Z,12.45
2022-10-18T17:25:51.443Z,11.07
2022-10-18T17:28:05.328Z,10.48
2022-10-18T17:30:11.614Z,13.50
2022-10-18T17:32:18.969Z,10.25
2022-10-18T17:34:23.725Z,9.50
2022-10-18T17:36:28.658Z,9.57
2022-10-18T17:38:33.808Z,9.35
2022-10-18T17:42:46.659Z,13.55
2022-10-18T17:44:54.273Z,9.57
2022-10-18T17:47:01.790Z,8.00
2022-10-18T17:49:09.481Z,8.73
2022-10-18T17:51:16.186Z,6.35
2022-10-18T17:53:23.066Z,7.78
2022-10-18T17:55:28.136Z,9.20
2022-10-18T17:59:37.830Z,7.40
2022-10-18T18:01:42.591Z,6.88
2022-10-18T18:03:48.308Z,6.30
2022-10-18T18:05:55.685Z,6.78
2022-10-18T18:08:03.794Z,8.55
2022-10-18T18:10:09.844Z,9.13
2022-10-18T18:12:14.592Z,16.02
2022-10-18T18:14:19.486Z,11.13
2022-10-18T18:16:26.325Z,10.93
2022-10-18T18:18:31.082Z,7.97
2022-10-18T18:20:35.881Z,6.80
2022-10-18T18:22:43.388Z,5.88
2022-10-18T18:24:48.388Z,6.93
2022-10-18T18:26:53.453Z,6.38
2022-10-18T18:31:03.061Z,9.60
2022-10-18T18:33:07.885Z,14.27
2022-10-18T18:35:12.980Z,10.60
2022-10-18T18:37:17.760Z,15.73
2022-10-18T18:39:29.639Z,19.67
2022-10-18T18:41:34.920Z,21.92
2022-10-18T18:43:40.950Z,23.52
2022-10-18T18:45:53.315Z,13.32
2022-10-18T18:47:58.241Z,9.13
2022-10-18T18:50:03.093Z,8.90
2022-10-18T18:52:08.153Z,5.65
2022-10-18T18:56:23.646Z,8.20
2022-10-18T18:58:28.404Z,9.82
2022-10-18T19:00:33.124Z,8.20
2022-10-18T19:02:37.902Z,7.25
2022-10-18T19:04:42.745Z,11.88
2022-10-18T19:06:48.360Z,20.27
2022-10-18T19:09:00.097Z,18.45
2022-10-18T19:11:08.108Z,17.23
2022-10-18T19:13:16.731Z,11.27
2022-10-18T19:15:22.009Z,7.78
2022-10-18T19:17:26.892Z,8.68
2022-10-18T19:19:33.181Z,6.43
2022-10-18T19:21:42.547Z,8.50
2022-10-18T19:23:47.341Z,7.68
2022-10-18T19:25:52.095Z,9.27
2022-10-18T19:27:56.934Z,7.93
2022-10-18T19:30:04.402Z,7.47
2022-10-18T19:32:13.074Z,6.93
2022-10-18T19:34:18.702Z,5.45
2022-10-18T19:36:23.456Z,5.80
2022-10-18T19:38:28.269Z,5.78
2022-10-18T19:40:33.280Z,7.80
2022-10-18T19:42:38.538Z,8.75
2022-10-18T19:44:44.429Z,7.47
2022-10-18T19:46:53.043Z,7.32
2022-10-18T19:48:58.682Z,9.95
2022-10-18T19:51:09.419Z,7.35
2022-10-18T19:53:14.688Z,9.60
2022-10-18T19:55:19.439Z,6.95
2022-10-18T19:57:24.324Z,9.02
2022-10-18T19:59:29.139Z,8.35
2022-10-18T20:01:34.018Z,8.68
2022-10-18T20:03:41.427Z,7.72
2022-10-18T20:05:46.187Z,8.43
2022-10-18T20:07:50.931Z,7.18
2022-10-18T20:09:55.756Z,7.97
2022-10-18T20:12:00.451Z,11.00
2022-10-18T20:14:05.497Z,7.07
2022-10-18T20:16:13.830Z,6.85
2022-10-18T20:18:19.111Z,8.55
2022-10-18T20:20:26.416Z,6.82
2022-10-18T20:22:31.479Z,8.18
2022-10-18T20:24:36.501Z,8.85
2022-10-18T20:26:43.539Z,7.40
2022-10-18T20:28:49.481Z,7.88
2022-10-18T20:31:02.894Z,8.43
2022-10-18T20:33:07.753Z,7.65
2022-10-18T20:37:19.839Z,9.18
2022-10-18T20:39:25.058Z,5.90
2022-10-18T20:41:31.202Z,6.65
2022-10-18T20:43:36.673Z,7.22
2022-10-18T20:45:41.421Z,5.60
2022-10-18T20:47:46.444Z,5.85
2022-10-18T20:49:51.187Z,5.88
2022-10-18T20:51:55.945Z,9.43
2022-10-18T20:56:12.235Z,5.88
2022-10-18T20:58:17.036Z,5.13
2022-10-18T21:00:22.145Z,4.75
2022-10-18T21:02:26.901Z,6.00
2022-10-18T21:04:31.783Z,5.32
2022-10-18T21:06:37.971Z,4.82
2022-10-18T21:08:43.126Z,6.95
2022-10-18T21:12:55.683Z,4.47
2022-10-18T21:15:00.425Z,8.90
2022-10-18T21:17:05.161Z,6.50
2022-10-18T21:19:12.771Z,10.88
2022-10-18T21:21:19.871Z,5.22
2022-10-18T21:23:25.366Z,4.07
2022-10-18T21:25:30.160Z,5.30
2022-10-18T21:27:37.471Z,5.43
2022-10-18T21:29:42.228Z,5.57
2022-10-18T21:31:47.338Z,6.63
2022-10-18T21:33:56.790Z,5.47
2022-10-18T21:36:04.111Z,6.53
2022-10-18T21:38:08.972Z,5.95
2022-10-18T21:40:14.344Z,5.38
2022-10-18T21:42:19.125Z,6.72
2022-10-18T21:44:26.533Z,7.00
2022-10-18T21:46:31.376Z,6.55
2022-10-18T21:48:36.461Z,6.15
2022-10-18T21:50:41.217Z,8.35
2022-10-18T21:52:46.115Z,8.52
2022-10-18T21:54:50.846Z,6.43
2022-10-18T21:56:55.945Z,5.38
2022-10-18T21:59:01.025Z,6.10
2022-10-18T22:01:10.433Z,6.53
2022-10-18T22:03:16.668Z,6.25
2022-10-18T22:05:21.889Z,4.72
2022-10-18T22:07:26.741Z,4.93
2022-10-18T22:09:31.571Z,6.35
2022-10-18T22:11:38.979Z,5.43
2022-10-18T22:13:44.526Z,6.28
2022-10-18T22:15:49.341Z,6.10
2022-10-18T22:17:56.643Z,5.03
2022-10-18T22:20:01.353Z,7.50
2022-10-18T22:22:06.107Z,7.18
2022-10-18T22:24:12.687Z,6.93
2022-10-18T22:26:19.173Z,5.97
2022-10-18T22:28:24.021Z,5.63
2022-10-18T22:30:28.707Z,6.20
2022-10-18T22:32:33.426Z,6.05
2022-10-18T22:34:40.769Z,4.85
2022-10-18T22:36:45.829Z,6.90
2022-10-18T22:38:50.584Z,6.65
2022-10-18T22:40:55.316Z,5.50
2022-10-18T22:43:00.057Z,6.35
2022-10-18T22:45:04.912Z,5.90
2022-10-18T22:47:09.934Z,6.65
2022-10-18T22:49:15.214Z,8.63
2022-10-18T22:53:27.504Z,8.23
2022-10-18T22:55:32.210Z,7.95
2022-10-18T22:57:36.949Z,13.63
2022-10-18T22:59:41.861Z,11.65
2022-10-18T23:01:46.639Z,23.60
2022-10-18T23:03:55.610Z,25.33
2022-10-18T23:06:00.711Z,40.97
2022-10-18T23:08:08.143Z,45.05
2022-10-18T23:10:12.870Z,39.90
2022-10-18T23:12:17.596Z,24.90
2022-10-18T23:14:22.435Z,34.75
2022-10-18T23:16:27.326Z,18.70
2022-10-18T23:18:32.447Z,14.65
2022-10-18T23:20:37.191Z,7.63
2022-10-18T23:22:41.940Z,7.22
2022-10-18T23:24:49.393Z,29.92
2022-10-18T23:26:54.203Z,8.05
2022-10-18T23:28:59.267Z,15.80
2022-10-18T23:33:12.395Z,5.22
2022-10-18T23:35:17.148Z,16.48
2022-10-18T23:37:21.978Z,7.72
2022-10-18T23:39:26.893Z,6.28
2022-10-18T23:41:34.211Z,16.70
2022-10-18T23:43:39.503Z,8.32
2022-10-18T23:47:48.746Z,15.48
2022-10-18T23:49:55.888Z,22.77
2022-10-18T23:52:00.652Z,9.05
2022-10-18T23:54:05.372Z,12.60
2022-10-18T23:56:12.629Z,6.95
2022-10-18T23:58:19.964Z,12.40
